Time;durP1;ratioP1;P1;durP2;ratioP2;P2;SDS_P1;SDS_P2;PMS_P1;PMS_P2;Temp;Humidity;BMP_temperature;BMP_pressure;BME280_temperature;BME280_humidity;BME280_pressure;Samples;Min_cycle;Max_cycle;Signal;HPM_P1;HPM_P2
2021/03/20 00:00:27;;;;;;;18.10;8.43;;;-0.70;99.90;;;;;;4960015;28;20034;-73
2021/03/20 00:02:52;;;;;;;16.67;7.97;;;-0.70;99.90;;;;;;4958300;28;20496;-72
2021/03/20 00:05:19;;;;;;;17.23;8.43;;;-0.70;99.90;;;;;;4957603;28;20085;-74
2021/03/20 00:07:45;;;;;;;18.70;8.40;;;-0.70;99.90;;;;;;4960490;28;20490;-73
2021/03/20 00:10:16;;;;;;;24.52;9.35;;;-0.70;99.90;;;;;;4960895;28;20035;-74
2021/03/20 00:12:43;;;;;;;19.40;8.52;;;-0.70;99.90;;;;;;4959863;28;20499;-73
2021/03/20 00:15:12;;;;;;;15.70;7.10;;;-0.70;99.90;;;;;;4958671;28;20050;-73
2021/03/20 00:17:37;;;;;;;12.68;6.65;;;-0.70;99.90;;;;;;4963644;28;20042;-74
2021/03/20 00:20:05;;;;;;;18.80;7.50;;;-0.70;99.90;;;;;;4962790;28;20039;-74
2021/03/20 00:22:31;;;;;;;14.75;6.78;;;-0.70;99.90;;;;;;4957632;28;20121;-74
2021/03/20 00:24:57;;;;;;;18.17;8.38;;;-0.70;99.90;;;;;;4961243;28;20190;-74
2021/03/20 00:27:23;;;;;;;18.50;7.65;;;-0.70;99.90;;;;;;4960437;28;20063;-73
2021/03/20 00:29:49;;;;;;;16.88;7.22;;;-0.70;99.90;;;;;;4960126;28;20046;-73
2021/03/20 00:32:14;;;;;;;16.95;6.97;;;-0.70;99.90;;;;;;4957743;28;20061;-74
2021/03/20 00:34:40;;;;;;;20.38;8.07;;;-0.70;99.90;;;;;;4959562;28;20047;-73
2021/03/20 00:37:05;;;;;;;15.48;6.90;;;-0.70;99.90;;;;;;4956839;28;20043;-72
2021/03/20 00:39:31;;;;;;;17.02;7.45;;;-0.80;99.90;;;;;;4960274;28;20043;-72
2021/03/20 00:41:56;;;;;;;18.30;7.20;;;-0.80;99.90;;;;;;4958330;28;20043;-73
2021/03/20 00:44:22;;;;;;;16.38;7.32;;;-0.80;99.90;;;;;;4957785;28;20042;-73
2021/03/20 00:46:48;;;;;;;18.02;7.78;;;-0.70;99.90;;;;;;4958775;28;20569;-72
2021/03/20 00:49:13;;;;;;;16.40;6.80;;;-0.80;99.90;;;;;;4960448;28;20072;-72
2021/03/20 00:51:39;;;;;;;14.73;7.32;;;-0.80;99.90;;;;;;4959386;28;20098;-73
2021/03/20 00:54:04;;;;;;;14.80;7.35;;;-0.80;99.90;;;;;;4957592;28;20043;-73
2021/03/20 00:56:30;;;;;;;16.55;6.80;;;-0.70;99.90;;;;;;4951714;28;20041;-72
2021/03/20 00:58:56;;;;;;;12.82;6.40;;;-0.70;99.90;;;;;;4957523;28;20751;-73
2021/03/20 01:01:22;;;;;;;20.20;7.20;;;-0.60;99.90;;;;;;4956188;28;20115;-74
2021/03/20 01:03:48;;;;;;;19.02;6.57;;;-0.50;99.90;;;;;;4957374;28;20050;-72
2021/03/20 01:06:21;;;;;;;17.20;7.55;;;-0.50;99.90;;;;;;4953294;28;20039;-73
2021/03/20 01:08:47;;;;;;;17.15;8.13;;;-0.40;99.90;;;;;;4952649;28;20038;-73
2021/03/20 01:11:14;;;;;;;16.33;7.15;;;-0.30;99.90;;;;;;4953662;28;20031;-71
2021/03/20 01:13:40;;;;;;;22.50;7.70;;;-0.30;99.90;;;;;;4956263;28;20502;-74
2021/03/20 01:16:06;;;;;;;15.18;7.25;;;-0.20;99.90;;;;;;4954070;28;20035;-71
2021/03/20 01:18:32;;;;;;;13.93;6.93;;;-0.20;99.90;;;;;;4952535;28;20039;-74
2021/03/20 01:20:58;;;;;;;20.23;8.60;;;-0.10;99.90;;;;;;4955880;28;20037;-74
2021/03/20 01:23:24;;;;;;;16.83;7.22;;;-0.10;99.90;;;;;;4955074;28;20396;-72
2021/03/20 01:25:49;;;;;;;17.02;7.00;;;0.00;99.90;;;;;;4953609;28;20046;-73
2021/03/20 01:28:15;;;;;;;14.65;7.05;;;-0.10;99.90;;;;;;4955979;28;20172;-74
2021/03/20 01:30:43;;;;;;;14.77;6.55;;;0.00;99.90;;;;;;4954008;28;20039;-72
2021/03/20 01:33:09;;;;;;;21.08;7.38;;;0.10;99.90;;;;;;4952824;28;20039;-72
2021/03/20 01:35:35;;;;;;;15.32;6.97;;;0.10;99.90;;;;;;4951287;28;20535;-75
2021/03/20 01:38:03;;;;;;;20.48;7.80;;;0.20;99.90;;;;;;4954304;28;20707;-72
2021/03/20 01:40:35;;;;;;;18.38;7.32;;;0.20;99.90;;;;;;4952969;28;20045;-72
2021/03/20 01:43:01;;;;;;;14.45;6.95;;;0.20;99.90;;;;;;4951752;28;20059;-72
2021/03/20 01:45:33;;;;;;;16.52;6.90;;;0.30;99.90;;;;;;4952690;28;20103;-72
2021/03/20 01:48:18;;;;;;;15.45;7.75;;;0.30;99.90;;;;;;4952640;28;20027;-72
2021/03/20 01:50:49;;;;;;;13.82;6.70;;;0.40;99.90;;;;;;4952260;28;20102;-71
2021/03/20 01:53:57;;;;;;;17.58;6.75;;;0.40;99.90;;;;;;4949511;28;20154;-74
2021/03/20 01:56:32;;;;;;;17.65;7.18;;;0.50;99.90;;;;;;4957928;28;20102;-71
2021/03/20 01:58:58;;;;;;;21.48;7.57;;;0.50;99.90;;;;;;4951533;28;20062;-72
2021/03/20 02:01:27;;;;;;;12.85;7.00;;;0.60;99.90;;;;;;4952491;28;20062;-72
2021/03/20 02:03:53;;;;;;;19.95;8.27;;;0.60;99.90;;;;;;4952161;28;20488;-71
2021/03/20 02:06:20;;;;;;;17.63;7.15;;;0.60;99.90;;;;;;4950744;28;20404;-71
2021/03/20 02:08:47;;;;;;;28.52;7.35;;;0.60;99.90;;;;;;4950517;28;20146;-71
2021/03/20 02:11:42;;;;;;;18.20;7.20;;;0.70;99.90;;;;;;4960202;28;20148;-72
2021/03/20 02:14:12;;;;;;;;;;;0.70;99.90;;;;;;4952791;28;20070;-72
2021/03/20 02:17:00;;;;;;;17.08;7.35;;;0.70;99.90;;;;;;4951721;28;19921;-72
2021/03/20 02:19:43;;;;;;;15.45;7.45;;;0.70;99.90;;;;;;4949801;28;20042;-73
2021/03/20 02:22:20;;;;;;;15.73;7.57;;;0.70;99.90;;;;;;4950379;28;20095;-71
2021/03/20 02:25:01;;;;;;;18.85;7.82;;;0.70;99.90;;;;;;4950829;28;20047;-72
2021/03/20 02:27:50;;;;;;;22.23;8.70;;;0.70;99.90;;;;;;4948979;28;20102;-72
2021/03/20 02:30:22;;;;;;;16.10;8.05;;;0.80;99.90;;;;;;4956880;28;20608;-72
2021/03/20 02:33:11;;;;;;;15.23;6.72;;;0.80;99.90;;;;;;4964599;28;20031;-72
2021/03/20 02:36:05;;;;;;;13.00;6.65;;;0.80;99.90;;;;;;4962961;28;20051;-73
2021/03/20 02:38:41;;;;;;;16.75;7.47;;;0.80;99.90;;;;;;4959056;28;20463;-72
2021/03/20 02:41:12;;;;;;;18.48;7.38;;;0.80;99.90;;;;;;4962061;28;20065;-72
2021/03/20 02:43:54;;;;;;;17.58;7.75;;;0.80;99.90;;;;;;4963408;28;20031;-72
2021/03/20 02:46:37;;;;;;;16.23;8.15;;;0.80;99.90;;;;;;4973891;28;20084;-72
2021/03/20 02:49:27;;;;;;;16.58;6.72;;;0.80;99.90;;;;;;4986364;28;20130;-72
2021/03/20 02:52:04;;;;;;;20.17;8.20;;;0.70;99.90;;;;;;4966056;28;20054;-72
2021/03/20 02:54:36;;;;;;;20.80;8.32;;;0.80;99.90;;;;;;4966211;28;20035;-72
2021/03/20 02:57:09;;;;;;;20.20;7.78;;;0.70;99.90;;;;;;4972002;28;20050;-72
2021/03/20 02:59:39;;;;;;;17.10;7.90;;;0.70;99.90;;;;;;4976584;28;20146;-71
2021/03/20 03:02:07;;;;;;;15.40;7.78;;;0.70;99.90;;;;;;4965752;28;20031;-72
2021/03/20 03:04:42;;;;;;;12.90;7.03;;;0.70;99.90;;;;;;4965431;28;20033;-71
2021/03/20 03:07:16;;;;;;;14.38;6.47;;;0.70;99.90;;;;;;4966008;28;20289;-72
2021/03/20 03:09:47;;;;;;;18.10;7.50;;;0.70;99.90;;;;;;4962844;28;20061;-72
2021/03/20 03:12:22;;;;;;;15.32;7.38;;;0.70;99.90;;;;;;4959604;28;20892;-72
2021/03/20 03:14:53;;;;;;;14.32;6.85;;;0.80;99.90;;;;;;4963733;28;20047;-72
2021/03/20 03:17:21;;;;;;;20.35;7.53;;;0.80;99.90;;;;;;4959524;28;20059;-73
2021/03/20 03:20:09;;;;;;;13.38;7.30;;;0.80;99.90;;;;;;4962719;28;20117;-73
2021/03/20 03:22:41;;;;;;;15.55;7.45;;;0.80;99.90;;;;;;4958789;28;20058;-73
2021/03/20 03:25:11;;;;;;;16.27;7.88;;;0.80;99.90;;;;;;4959237;28;20042;-73
2021/03/20 03:27:39;;;;;;;20.30;7.80;;;0.80;99.90;;;;;;4961850;28;20042;-73
2021/03/20 03:30:11;;;;;;;13.07;6.90;;;0.70;99.90;;;;;;4961423;28;20467;-72
2021/03/20 03:32:44;;;;;;;19.58;8.52;;;0.80;99.90;;;;;;4960439;28;20066;-72
2021/03/20 03:35:33;;;;;;;13.85;7.43;;;0.80;99.90;;;;;;4961040;28;20081;-72
2021/03/20 03:38:05;;;;;;;15.35;8.20;;;0.80;99.90;;;;;;4978630;28;20043;-72
2021/03/20 03:40:45;;;;;;;14.55;8.00;;;0.70;99.90;;;;;;4964383;28;20039;-73
2021/03/20 03:43:11;;;;;;;14.80;8.20;;;0.80;99.90;;;;;;4962961;28;20055;-71
2021/03/20 03:45:37;;;;;;;15.55;7.57;;;0.80;99.90;;;;;;4961872;28;20043;-72
2021/03/20 03:48:04;;;;;;;16.15;7.82;;;0.80;99.90;;;;;;4961346;28;20039;-73
2021/03/20 03:50:34;;;;;;;18.35;8.07;;;0.80;99.90;;;;;;4956308;28;20034;-72
2021/03/20 03:53:03;;;;;;;18.10;8.18;;;0.80;99.90;;;;;;4960857;28;20510;-72
2021/03/20 03:55:29;;;;;;;15.32;7.97;;;0.80;99.90;;;;;;4960214;28;20039;-72
2021/03/20 03:58:02;;;;;;;16.67;9.02;;;0.80;99.90;;;;;;4957884;28;20043;-72
2021/03/20 04:00:36;;;;;;;18.35;7.72;;;0.80;99.90;;;;;;4955902;28;20031;-72
2021/03/20 04:03:30;;;;;;;16.92;7.95;;;0.80;99.90;;;;;;4960327;28;20566;-73
2021/03/20 04:06:21;;;;;;;15.27;7.47;;;0.80;99.90;;;;;;4957850;28;20122;-74
2021/03/20 04:09:23;;;;;;;19.65;8.05;;;0.80;99.90;;;;;;4960794;28;20043;-72
2021/03/20 04:12:16;;;;;;;16.98;8.13;;;0.70;99.90;;;;;;4959042;28;20082;-72
2021/03/20 04:14:51;;;;;;;16.80;7.88;;;0.70;99.90;;;;;;4959956;28;20788;-72
2021/03/20 04:17:26;;;;;;;16.77;8.07;;;0.70;99.90;;;;;;4957015;28;20045;-72
2021/03/20 04:20:03;;;;;;;14.90;6.95;;;0.70;99.90;;;;;;4957351;28;20105;-72
2021/03/20 04:22:35;;;;;;;17.05;8.20;;;0.70;99.90;;;;;;4957320;28;20038;-73
2021/03/20 04:25:25;;;;;;;20.08;7.82;;;0.80;99.90;;;;;;4955685;28;20830;-72
2021/03/20 04:28:02;;;;;;;15.10;7.25;;;0.70;99.90;;;;;;4954038;28;20058;-71
2021/03/20 04:30:32;;;;;;;16.35;8.15;;;0.80;99.90;;;;;;4955376;28;20050;-71
2021/03/20 04:33:05;;;;;;;18.42;8.73;;;0.70;99.90;;;;;;4954873;28;20435;-73
2021/03/20 04:35:38;;;;;;;19.58;8.57;;;0.80;99.90;;;;;;4953780;28;20400;-71
2021/03/20 04:38:06;;;;;;;22.42;8.23;;;0.70;99.90;;;;;;4957023;28;20034;-74
2021/03/20 04:40:31;;;;;;;19.38;9.20;;;0.70;99.90;;;;;;4954707;28;20094;-73
2021/03/20 04:42:57;;;;;;;20.65;8.57;;;0.70;99.90;;;;;;4954581;28;20051;-72
2021/03/20 04:45:34;;;;;;;15.80;8.40;;;0.70;99.90;;;;;;4954863;28;20038;-71
2021/03/20 04:48:05;;;;;;;15.50;7.97;;;0.80;99.90;;;;;;4954446;28;20542;-72
2021/03/20 04:50:33;;;;;;;13.98;7.53;;;0.70;99.90;;;;;;4961498;28;20050;-72
2021/03/20 04:53:00;;;;;;;18.58;7.40;;;0.70;99.90;;;;;;4956677;28;20035;-73
2021/03/20 04:55:28;;;;;;;18.70;7.95;;;0.70;99.90;;;;;;4955245;28;20089;-73
2021/03/20 04:58:02;;;;;;;15.75;7.38;;;0.70;99.90;;;;;;4953983;28;20137;-73
2021/03/20 05:00:33;;;;;;;;;;;0.60;99.90;;;;;;4960072;28;20047;-73
2021/03/20 05:03:12;;;;;;;18.75;8.18;;;0.60;99.90;;;;;;4973466;28;20501;-73
2021/03/20 05:05:58;;;;;;;15.65;7.75;;;0.50;99.90;;;;;;4962181;28;20047;-73
2021/03/20 05:08:38;;;;;;;19.08;8.00;;;0.40;99.90;;;;;;4956396;28;20039;-72
2021/03/20 05:11:09;;;;;;;17.58;7.78;;;0.40;99.90;;;;;;4955128;28;20103;-72
2021/03/20 05:13:56;;;;;;;13.90;7.35;;;0.30;99.90;;;;;;4951431;28;20057;-72
2021/03/20 05:16:26;;;;;;;22.45;7.63;;;0.20;99.90;;;;;;4952785;28;20503;-72
2021/03/20 05:18:54;;;;;;;18.25;8.70;;;0.20;99.90;;;;;;4950779;28;20109;-72
2021/03/20 05:21:29;;;;;;;17.48;7.38;;;0.10;99.90;;;;;;4951207;28;20118;-72
2021/03/20 05:23:56;;;;;;;14.13;7.75;;;0.10;99.90;;;;;;4952648;28;20039;-72
2021/03/20 05:26:21;;;;;;;16.77;8.25;;;0.10;99.90;;;;;;4951829;28;20046;-73
2021/03/20 05:28:47;;;;;;;16.42;7.72;;;0.00;99.90;;;;;;4952842;28;20043;-72
2021/03/20 05:31:13;;;;;;;14.82;7.85;;;0.10;99.90;;;;;;4961625;28;20620;-73
2021/03/20 05:33:41;;;;;;;13.85;7.10;;;0.00;99.90;;;;;;4957373;28;20474;-72
2021/03/20 05:36:08;;;;;;;16.27;8.25;;;0.00;99.90;;;;;;4961645;28;20098;-72
2021/03/20 05:38:34;;;;;;;19.63;8.63;;;0.00;99.90;;;;;;4959848;28;20106;-72
2021/03/20 05:41:22;;;;;;;21.15;8.50;;;0.00;99.90;;;;;;4957815;28;20067;-71
2021/03/20 05:43:57;;;;;;;16.90;8.15;;;0.00;99.90;;;;;;4959445;28;20057;-72
2021/03/20 05:46:38;;;;;;;17.80;8.98;;;0.00;99.90;;;;;;4957919;28;20488;-71
2021/03/20 05:49:25;;;;;;;17.48;9.05;;;0.00;99.90;;;;;;4962067;28;20046;-72
2021/03/20 05:52:08;;;;;;;16.70;9.18;;;-0.10;99.90;;;;;;4980310;28;20047;-73
2021/03/20 05:54:48;;;;;;;20.77;8.85;;;-0.10;99.90;;;;;;4966557;28;20524;-71
2021/03/20 05:57:22;;;;;;;16.38;9.15;;;-0.10;99.90;;;;;;4956218;28;20468;-71
2021/03/20 06:00:03;;;;;;;20.02;9.18;;;-0.10;99.90;;;;;;4960209;28;20150;-71
2021/03/20 06:02:59;;;;;;;18.30;8.13;;;0.00;99.90;;;;;;4974752;28;20023;-73
2021/03/20 06:05:52;;;;;;;17.23;8.35;;;0.00;99.90;;;;;;4965286;28;20066;-70
2021/03/20 06:08:22;;;;;;;16.83;8.40;;;0.00;99.90;;;;;;4964537;28;20108;-73
2021/03/20 06:11:05;;;;;;;16.33;8.48;;;0.00;99.90;;;;;;4961681;28;20043;-72
2021/03/20 06:13:58;;;;;;;15.85;7.35;;;0.10;99.90;;;;;;4965376;28;20050;-71
2021/03/20 06:16:41;;;;;;;18.40;7.93;;;0.10;99.90;;;;;;4963474;28;20405;-73
2021/03/20 06:19:30;;;;;;;14.93;7.03;;;0.20;99.90;;;;;;4963715;28;20066;-74
2021/03/20 06:22:15;;;;;;;19.35;8.20;;;0.30;99.90;;;;;;4962699;28;20102;-72
2021/03/20 06:24:52;;;;;;;15.35;7.93;;;0.40;99.90;;;;;;4963870;28;20039;-72
2021/03/20 06:27:32;;;;;;;13.65;6.57;;;0.40;99.90;;;;;;4962440;28;20494;-72
2021/03/20 06:30:04;;;;;;;14.70;7.35;;;0.50;99.90;;;;;;4963974;28;20074;-72
2021/03/20 06:32:41;;;;;;;16.23;6.25;;;0.60;99.90;;;;;;4965543;28;20035;-72
2021/03/20 06:35:27;;;;;;;14.18;6.88;;;0.60;99.90;;;;;;4961449;28;20058;-72
2021/03/20 06:37:57;;;;;;;17.90;6.82;;;0.70;99.90;;;;;;4961846;28;20042;-73
2021/03/20 06:40:43;;;;;;;12.38;6.53;;;0.70;99.90;;;;;;4958102;28;20074;-72
2021/03/20 06:43:15;;;;;;;11.02;5.88;;;0.70;99.90;;;;;;4959589;28;20038;-72
2021/03/20 06:45:41;;;;;;;12.00;5.82;;;0.80;99.90;;;;;;4959738;28;20657;-72
2021/03/20 06:48:18;;;;;;;10.95;5.63;;;0.80;99.90;;;;;;4961037;28;20130;-72
2021/03/20 06:50:50;;;;;;;11.38;4.93;;;0.90;99.90;;;;;;4962360;28;20070;-71
2021/03/20 06:53:18;;;;;;;12.95;5.88;;;0.90;99.90;;;;;;4956998;28;20165;-74
2021/03/20 06:55:47;;;;;;;11.15;4.45;;;1.00;99.90;;;;;;4956754;28;20085;-73
2021/03/20 06:58:18;;;;;;;9.07;4.40;;;0.90;99.90;;;;;;4960266;28;20050;-73
2021/03/20 07:00:44;;;;;;;10.18;4.40;;;0.90;99.90;;;;;;4959750;28;20065;-71
2021/03/20 07:03:13;;;;;;;7.82;4.03;;;1.00;99.90;;;;;;4959158;28;20036;-73
2021/03/20 07:05:47;;;;;;;7.30;3.88;;;1.10;99.90;;;;;;4958678;28;20109;-72
2021/03/20 07:08:38;;;;;;;6.03;3.50;;;1.20;99.90;;;;;;4959421;28;20035;-74
2021/03/20 07:11:18;;;;;;;19.02;3.92;;;1.20;99.90;;;;;;4956945;28;20548;-74
2021/03/20 07:13:49;;;;;;;8.25;4.18;;;1.50;99.40;;;;;;4959944;28;20061;-73
2021/03/20 07:16:17;;;;;;;11.25;4.15;;;1.50;95.30;;;;;;4957453;28;20054;-72
2021/03/20 07:18:52;;;;;;;10.07;4.53;;;1.60;94.50;;;;;;4959957;28;20492;-74
2021/03/20 07:21:28;;;;;;;9.63;3.72;;;1.70;93.40;;;;;;4960387;28;20051;-72
2021/03/20 07:24:16;;;;;;;9.45;4.05;;;1.80;93.60;;;;;;4965990;28;20057;-72
2021/03/20 07:26:58;;;;;;;7.80;4.38;;;1.70;92.70;;;;;;4963062;28;20034;-73
2021/03/20 07:30:25;;;;;;;7.40;3.58;;;1.80;92.70;;;;;;4956882;28;20512;-72
2021/03/20 07:32:50;;;;;;;6.93;3.78;;;1.50;91.90;;;;;;4922865;29;20055;-71
2021/03/20 07:35:19;;;;;;;10.02;3.45;;;1.70;91.90;;;;;;4955277;28;20034;-72
2021/03/20 07:37:45;;;;;;;7.90;4.15;;;1.80;90.30;;;;;;4953120;28;20043;-74
2021/03/20 07:40:19;;;;;;;10.00;4.03;;;2.20;86.00;;;;;;4953671;28;20117;-72
2021/03/20 07:42:46;;;;;;;7.60;3.63;;;2.50;84.80;;;;;;4955628;28;20156;-73
2021/03/20 07:45:17;;;;;;;5.82;3.40;;;2.30;83.20;;;;;;4956551;28;20043;-73
2021/03/20 07:47:58;;;;;;;8.38;4.10;;;2.30;82.20;;;;;;4956516;28;20054;-73
2021/03/20 07:50:30;;;;;;;7.03;3.80;;;2.40;81.20;;;;;;4954964;28;20554;-71
2021/03/20 07:53:07;;;;;;;6.82;3.67;;;2.60;80.40;;;;;;4954640;28;21144;-72
2021/03/20 07:55:54;;;;;;;7.15;3.42;;;2.90;78.60;;;;;;4959803;28;20101;-72
2021/03/20 07:58:22;;;;;;;9.77;3.70;;;2.70;75.80;;;;;;4953455;28;20047;-73
2021/03/20 08:00:57;;;;;;;9.63;3.92;;;2.80;73.90;;;;;;4954032;28;20035;-71
2021/03/20 08:03:29;;;;;;;7.57;3.53;;;2.50;72.50;;;;;;4952074;28;20046;-73
2021/03/20 08:06:10;;;;;;;8.55;3.50;;;2.70;72.90;;;;;;4958957;28;20050;-72
2021/03/20 08:08:37;;;;;;;6.10;4.03;;;2.70;71.10;;;;;;4965329;28;20046;-72
2021/03/20 08:11:04;;;;;;;6.15;3.47;;;2.30;70.40;;;;;;4959526;28;20038;-72
2021/03/20 08:13:46;;;;;;;7.63;3.80;;;2.10;72.10;;;;;;4961054;28;20966;-72
2021/03/20 08:16:16;;;;;;;10.43;3.97;;;2.20;74.30;;;;;;4958525;28;20351;-71
2021/03/20 08:18:42;;;;;;;7.75;3.55;;;3.30;70.80;;;;;;4963643;28;20107;-74
2021/03/20 08:21:19;;;;;;;7.70;3.05;;;3.20;66.40;;;;;;4958939;28;20055;-73
2021/03/20 08:23:57;;;;;;;4.43;2.65;;;3.40;68.80;;;;;;4958560;28;20097;-73
2021/03/20 08:27:00;;;;;;;5.28;2.60;;;4.00;57.80;;;;;;4958783;28;20688;-74
2021/03/20 08:29:47;;;;;;;6.40;2.78;;;4.70;59.10;;;;;;4958641;28;20035;-75
2021/03/20 08:32:30;;;;;;;6.05;2.65;;;4.50;52.20;;;;;;4958100;28;20402;-72
2021/03/20 08:34:59;;;;;;;6.10;2.60;;;3.70;52.00;;;;;;4960340;28;20034;-73
2021/03/20 08:37:42;;;;;;;8.02;3.63;;;3.60;53.30;;;;;;4960636;28;20140;-72
2021/03/20 08:40:32;;;;;;;5.40;2.47;;;3.40;57.80;;;;;;4957415;28;20039;-72
2021/03/20 08:43:09;;;;;;;6.90;2.22;;;3.10;61.20;;;;;;4953900;28;20043;-73
2021/03/20 08:45:49;;;;;;;8.10;2.50;;;3.00;57.40;;;;;;4953253;28;20162;-72
2021/03/20 08:48:40;;;;;;;9.48;3.08;;;3.00;57.80;;;;;;4957430;28;20046;-73
2021/03/20 08:51:25;;;;;;;4.10;2.28;;;2.60;56.50;;;;;;4956591;28;20039;-73
2021/03/20 08:54:04;;;;;;;8.95;2.38;;;2.00;58.40;;;;;;4959763;28;20034;-73
2021/03/20 08:56:54;;;;;;;7.95;2.78;;;1.90;58.70;;;;;;4975499;28;20042;-73
2021/03/20 08:59:25;;;;;;;6.13;2.67;;;1.80;59.20;;;;;;4963592;28;20066;-73
2021/03/20 09:01:57;;;;;;;4.18;1.95;;;1.70;61.10;;;;;;4965234;28;20407;-71
2021/03/20 09:04:32;;;;;;;7.65;2.08;;;1.60;57.60;;;;;;4962983;28;20827;-72
2021/03/20 09:07:08;;;;;;;7.65;2.60;;;2.00;60.10;;;;;;4979098;28;20059;-70
2021/03/20 09:09:42;;;;;;;11.35;2.80;;;3.70;53.30;;;;;;4969954;28;20125;-72
2021/03/20 09:12:17;;;;;;;4.63;2.42;;;3.30;48.50;;;;;;4958356;28;21020;-72
2021/03/20 09:14:45;;;;;;;7.43;2.78;;;4.50;48.90;;;;;;4959497;28;20047;-72
2021/03/20 09:17:20;;;;;;;8.52;2.30;;;3.90;47.90;;;;;;4959152;28;20038;-72
2021/03/20 09:20:24;;;;;;;5.85;2.72;;;5.10;43.90;;;;;;4959199;28;20593;-73
2021/03/20 09:22:51;;;;;;;5.18;2.45;;;6.60;39.90;;;;;;4958302;28;20042;-71
2021/03/20 09:25:28;;;;;;;6.35;2.50;;;4.80;41.90;;;;;;4960775;28;20138;-72
2021/03/20 09:28:14;;;;;;;5.35;2.55;;;4.70;46.00;;;;;;4963010;28;20130;-74
2021/03/20 09:30:54;;;;;;;7.40;2.25;;;4.40;46.10;;;;;;4958446;28;20051;-73
2021/03/20 09:33:20;;;;;;;7.40;2.30;;;3.60;46.90;;;;;;4959210;28;20482;-72
2021/03/20 09:35:52;;;;;;;5.50;1.90;;;3.60;49.50;;;;;;4958880;28;20541;-73
2021/03/20 09:38:36;;;;;;;4.38;2.15;;;4.60;45.10;;;;;;4956797;28;20043;-74
2021/03/20 09:41:13;;;;;;;7.80;2.13;;;5.90;31.20;;;;;;4951360;28;20058;-73
2021/03/20 09:44:01;;;;;;;5.35;2.10;;;6.30;26.70;;;;;;4954746;28;20066;-75
2021/03/20 09:46:39;;;;;;;5.43;2.10;;;6.40;28.10;;;;;;4953704;28;20031;-72
2021/03/20 09:49:07;;;;;;;2.47;1.48;;;7.10;24.70;;;;;;4951187;28;20547;-72
2021/03/20 09:51:50;;;;;;;1.80;1.20;;;8.70;21.90;;;;;;4951661;28;20110;-74
2021/03/20 09:54:22;;;;;;;2.40;1.08;;;10.00;17.10;;;;;;4952652;28;20061;-73
2021/03/20 09:56:48;;;;;;;3.03;1.30;;;9.70;15.10;;;;;;4951116;28;20043;-72
2021/03/20 09:59:34;;;;;;;3.00;1.48;;;10.90;14.90;;;;;;4949352;28;20348;-72
2021/03/20 10:02:12;;;;;;;2.80;1.50;;;9.50;14.20;;;;;;4951789;28;20407;-72
2021/03/20 10:04:37;;;;;;;2.50;1.63;;;8.00;16.40;;;;;;4958707;28;20043;-73
2021/03/20 10:07:21;;;;;;;2.35;1.60;;;7.30;18.30;;;;;;4956282;28;20529;-73
2021/03/20 10:10:11;;;;;;;2.63;1.50;;;7.10;18.60;;;;;;4950800;28;20048;-73
2021/03/20 10:12:46;;;;;;;4.35;1.70;;;7.30;17.30;;;;;;4951292;28;20354;-72
2021/03/20 10:15:14;;;;;;;2.58;1.40;;;8.90;18.50;;;;;;4949975;28;20404;-74
2021/03/20 10:18:05;;;;;;;3.78;1.48;;;8.80;15.50;;;;;;4949298;28;20135;-72
2021/03/20 10:20:51;;;;;;;3.67;1.95;;;9.70;17.10;;;;;;4946521;28;20035;-72
2021/03/20 10:23:47;;;;;;;3.15;1.60;;;10.00;15.50;;;;;;4949811;28;20043;-74
2021/03/20 10:26:22;;;;;;;3.67;1.80;;;9.60;15.50;;;;;;4944504;28;20077;-72
2021/03/20 10:28:55;;;;;;;4.00;1.83;;;8.50;13.40;;;;;;4946900;28;20059;-73
2021/03/20 10:31:21;;;;;;;5.50;2.20;;;8.40;18.60;;;;;;4947032;28;20065;-72
2021/03/20 10:33:48;;;;;;;3.50;1.88;;;8.50;15.90;;;;;;4949950;28;20290;-72
2021/03/20 10:36:31;;;;;;;5.20;1.48;;;9.00;16.00;;;;;;4948367;28;20047;-70
2021/03/20 10:38:56;;;;;;;8.32;1.65;;;9.30;16.30;;;;;;4949783;28;20126;-71
2021/03/20 10:41:36;;;;;;;4.57;1.95;;;9.90;16.30;;;;;;4946136;28;20125;-72
2021/03/20 10:44:13;;;;;;;9.48;1.90;;;10.30;17.10;;;;;;4951884;28;20054;-71
2021/03/20 10:46:39;;;;;;;4.40;1.77;;;10.50;15.20;;;;;;4961650;28;20347;-72
2021/03/20 10:49:19;;;;;;;2.70;1.70;;;9.90;14.50;;;;;;4955812;28;20045;-73
2021/03/20 10:51:48;;;;;;;5.53;2.03;;;10.50;14.80;;;;;;4956458;28;20050;-72
2021/03/20 10:54:36;;;;;;;3.47;1.77;;;10.70;13.60;;;;;;4947307;28;20038;-71
2021/03/20 10:57:15;;;;;;;2.85;1.77;;;10.90;13.10;;;;;;4947203;28;20594;-72
2021/03/20 10:59:44;;;;;;;5.18;2.05;;;11.70;11.60;;;;;;4942745;28;20054;-72
2021/03/20 11:02:27;;;;;;;3.65;1.73;;;12.60;13.80;;;;;;4949222;28;20523;-72
2021/03/20 11:05:09;;;;;;;3.55;1.70;;;11.50;12.10;;;;;;4947681;28;20162;-73
2021/03/20 11:07:55;;;;;;;5.57;2.28;;;11.40;11.00;;;;;;4949306;28;20045;-72
2021/03/20 11:10:28;;;;;;;3.40;2.08;;;9.70;14.90;;;;;;4952553;28;20573;-71
2021/03/20 11:12:55;;;;;;;2.78;1.75;;;9.80;14.10;;;;;;4945678;28;20081;-72
2021/03/20 11:15:26;;;;;;;12.35;1.85;;;9.40;14.30;;;;;;4946158;28;20185;-72
2021/03/20 11:17:55;;;;;;;5.85;1.90;;;9.50;15.00;;;;;;4946155;28;20151;-71
2021/03/20 11:20:26;;;;;;;5.47;2.40;;;10.20;12.30;;;;;;4947532;28;20614;-72
2021/03/20 11:22:52;;;;;;;5.10;2.33;;;10.60;12.50;;;;;;4948965;28;20055;-74
2021/03/20 11:25:30;;;;;;;3.65;1.77;;;9.50;14.60;;;;;;4954642;28;20237;-70
2021/03/20 11:28:01;;;;;;;4.60;2.28;;;9.60;12.40;;;;;;4952520;28;20041;-72
2021/03/20 11:30:35;;;;;;;4.40;1.80;;;10.20;13.00;;;;;;4953981;28;20327;-72
2021/03/20 11:33:01;;;;;;;5.35;1.98;;;10.10;12.00;;;;;;4951673;28;20046;-73
2021/03/20 11:35:30;;;;;;;2.72;1.92;;;11.40;12.70;;;;;;4952343;28;20287;-73
2021/03/20 11:38:00;;;;;;;5.32;2.05;;;10.90;11.40;;;;;;4951377;28;20047;-74
2021/03/20 11:40:36;;;;;;;3.78;1.98;;;10.30;11.90;;;;;;4948946;28;20035;-73
2021/03/20 11:43:08;;;;;;;4.15;1.60;;;10.60;11.70;;;;;;4954692;28;20778;-72
2021/03/20 11:45:40;;;;;;;4.38;1.90;;;10.00;12.00;;;;;;4945546;28;20044;-72
2021/03/20 11:48:31;;;;;;;6.45;2.72;;;10.80;13.10;;;;;;4948148;28;20378;-71
2021/03/20 11:50:59;;;;;;;5.18;2.38;;;11.40;12.70;;;;;;4942836;28;21100;-72
2021/03/20 11:53:34;;;;;;;2.83;1.88;;;10.20;13.30;;;;;;4944217;28;20085;-73
2021/03/20 11:56:00;;;;;;;5.03;2.13;;;9.50;13.20;;;;;;4946149;28;20538;-73
2021/03/20 11:58:31;;;;;;;5.07;2.08;;;9.50;14.80;;;;;;4952284;28;20081;-73
2021/03/20 12:00:59;;;;;;;2.78;1.58;;;9.50;13.90;;;;;;4973255;28;20066;-72
2021/03/20 12:03:36;;;;;;;4.90;1.88;;;10.60;13.20;;;;;;4965402;28;20040;-72
2021/03/20 12:06:17;;;;;;;5.22;2.65;;;10.50;12.30;;;;;;4949960;28;20257;-73
2021/03/20 12:08:48;;;;;;;5.30;2.08;;;11.00;13.20;;;;;;4946409;28;20043;-73
2021/03/20 12:11:19;;;;;;;6.95;2.50;;;10.90;11.40;;;;;;4973591;28;20145;-73
2021/03/20 12:13:56;;;;;;;4.18;2.63;;;11.10;11.70;;;;;;4952694;28;20582;-72
2021/03/20 12:16:37;;;;;;;5.68;1.92;;;10.90;12.30;;;;;;4946986;28;20042;-73
2021/03/20 12:19:07;;;;;;;4.10;2.22;;;10.30;12.60;;;;;;4946091;28;20043;-73
2021/03/20 12:21:33;;;;;;;3.55;1.85;;;11.00;13.10;;;;;;4945187;28;20460;-73
2021/03/20 12:24:00;;;;;;;4.38;2.47;;;10.40;13.10;;;;;;4949738;28;20235;-72
2021/03/20 12:26:30;;;;;;;6.00;2.67;;;10.30;13.90;;;;;;4951974;28;20031;-72
2021/03/20 12:29:29;;;;;;;6.25;2.58;;;9.40;15.40;;;;;;4947559;28;20133;-73
2021/03/20 12:31:55;;;;;;;4.85;2.63;;;9.40;16.30;;;;;;4947878;28;20064;-73
2021/03/20 12:34:20;;;;;;;3.47;2.08;;;8.90;14.80;;;;;;4950908;28;20070;-73
2021/03/20 12:36:49;;;;;;;4.10;2.67;;;9.10;14.20;;;;;;4954953;28;20069;-74
2021/03/20 12:39:17;;;;;;;4.07;2.08;;;8.60;15.00;;;;;;4954438;28;20121;-72
2021/03/20 12:41:47;;;;;;;11.88;2.40;;;9.30;15.10;;;;;;4949399;28;20122;-74
2021/03/20 12:44:19;;;;;;;5.97;2.83;;;9.80;14.40;;;;;;4950562;28;20467;-72
2021/03/20 12:46:53;;;;;;;6.65;2.47;;;10.60;12.60;;;;;;4949694;28;20031;-73
2021/03/20 12:49:20;;;;;;;;;;;10.90;10.80;;;;;;4950826;28;20058;-72
2021/03/20 12:51:49;;;;;;;3.78;2.35;;;10.60;10.50;;;;;;4948564;28;20398;-73
2021/03/20 12:54:27;;;;;;;6.10;2.30;;;10.50;12.90;;;;;;4951279;28;20046;-74
2021/03/20 12:56:52;;;;;;;3.92;2.00;;;8.40;15.30;;;;;;4945408;28;20057;-73
2021/03/20 12:59:18;;;;;;;8.40;2.88;;;8.20;17.30;;;;;;4950820;28;20732;-73
2021/03/20 13:01:43;;;;;;;3.60;2.10;;;9.10;17.00;;;;;;4948946;28;20050;-74
2021/03/20 13:04:13;;;;;;;8.00;2.95;;;9.60;15.30;;;;;;4949429;28;20047;-73
2021/03/20 13:06:39;;;;;;;6.95;3.33;;;8.40;16.40;;;;;;4950845;28;20043;-73
2021/03/20 13:09:04;;;;;;;4.20;2.20;;;8.60;18.40;;;;;;4949085;28;20043;-73
2021/03/20 13:11:30;;;;;;;6.18;3.00;;;8.70;17.50;;;;;;4953089;28;20045;-73
2021/03/20 13:13:56;;;;;;;5.28;2.42;;;8.70;16.80;;;;;;4952181;28;20073;-75
2021/03/20 13:16:21;;;;;;;5.13;2.55;;;7.40;17.20;;;;;;4954605;28;20027;-73
2021/03/20 13:18:47;;;;;;;6.70;2.63;;;7.10;20.20;;;;;;4953342;28;20130;-71
2021/03/20 13:21:14;;;;;;;5.55;2.60;;;6.90;19.90;;;;;;4954971;28;20042;-73
2021/03/20 13:23:40;;;;;;;8.32;2.78;;;6.30;19.10;;;;;;4952686;28;20062;-72
2021/03/20 13:26:06;;;;;;;8.75;2.78;;;6.30;20.10;;;;;;4952274;28;20039;-74